Strona główna
METAR-TAF:

METAR-TAF

Lotnisko :

Orange Municipal Airport

Orange, Massachusetts, Stany Zjednoczone

Szerokość geograficzna: 42-34-18N, Długość geograficzna: 072-16-39W, wysokość: 169 m

Aktualna obserwacja pogody

Raport powstał 26 minut temu, godzina 20:52 UTC
Wiatr 4 kt z kierunków zmiennych
Temperatura 26°C
Wilgotność 32%
Ciśnienie 1010 hPa
Widzialność: 16.1 km
bezchmurnie

METAR: KORE 302052Z AUTO VRB04KT 10SM CLR 26/08 A2982 RMK AO2 SLP097 T02560078 56008

czas: 17:18 (21:18 UTC)


TAF: brakujący

Obserwacja i prognoza pogody dla ponad 4000 lotnisk (raport METAR i TAF).

Dostępne stacje oznaczono żółtymi i czerwonymi punktami na mapie.

Najedź kursorem aby zobaczyć nazwę stacji.

Kliknij aby zobaczyć obserwacje i prognozy pogody.

Aby zmienić mapę: kliknij na zielony przycisk z czarnym krzyżykiem, aby powiększyć; na zielony przycisk z myślnikiem, aby pomniejszyć; na zielone strzałki, aby przejść do map sąsiednich.


METAR-TAF: